sensor_id;sensor_type;location;lat;lon;timestamp;pressure;altitude;pressure_sealevel;temperature;humidity
80585;BME280;70137;56.482;9.154;2023-09-19T00:02:02;99387.22;;;16.17;93.52
80585;BME280;70137;56.482;9.154;2023-09-19T00:04:31;99392.69;;;16.16;93.33
80585;BME280;70137;56.482;9.154;2023-09-19T00:06:58;99385.06;;;16.14;93.33
80585;BME280;70137;56.482;9.154;2023-09-19T00:09:23;99382.00;;;16.17;92.92
80585;BME280;70137;56.482;9.154;2023-09-19T00:11:51;99389.84;;;16.17;93.17
80585;BME280;70137;56.482;9.154;2023-09-19T00:14:16;99371.78;;;16.16;93.60
80585;BME280;70137;56.482;9.154;2023-09-19T00:16:42;99389.50;;;16.14;92.63
80585;BME280;70137;56.482;9.154;2023-09-19T00:19:07;99386.34;;;16.12;93.13
80585;BME280;70137;56.482;9.154;2023-09-19T00:21:34;99387.13;;;16.12;93.30
80585;BME280;70137;56.482;9.154;2023-09-19T00:24:00;99384.72;;;16.11;93.02
80585;BME280;70137;56.482;9.154;2023-09-19T00:26:26;99382.34;;;16.09;92.71
80585;BME280;70137;56.482;9.154;2023-09-19T00:28:54;99397.25;;;16.09;92.91
80585;BME280;70137;56.482;9.154;2023-09-19T00:31:19;99431.22;;;16.09;92.83
80585;BME280;70137;56.482;9.154;2023-09-19T00:33:45;99445.31;;;16.08;92.93
80585;BME280;70137;56.482;9.154;2023-09-19T00:36:10;99443.53;;;15.96;90.73
80585;BME280;70137;56.482;9.154;2023-09-19T00:38:36;99451.25;;;15.80;89.82
80585;BME280;70137;56.482;9.154;2023-09-19T00:41:01;99455.44;;;15.57;86.65
80585;BME280;70137;56.482;9.154;2023-09-19T00:43:27;99450.31;;;15.39;87.88
80585;BME280;70137;56.482;9.154;2023-09-19T00:45:54;99451.75;;;15.23;88.37
80585;BME280;70137;56.482;9.154;2023-09-19T00:48:21;99466.94;;;15.14;89.23
80585;BME280;70137;56.482;9.154;2023-09-19T00:50:47;99458.78;;;15.11;90.52
80585;BME280;70137;56.482;9.154;2023-09-19T00:53:18;99453.31;;;15.12;91.34
80585;BME280;70137;56.482;9.154;2023-09-19T00:55:45;99456.50;;;15.14;91.66
80585;BME280;70137;56.482;9.154;2023-09-19T00:58:11;99462.66;;;15.20;92.39
80585;BME280;70137;56.482;9.154;2023-09-19T01:00:37;99464.16;;;15.28;93.49
80585;BME280;70137;56.482;9.154;2023-09-19T01:03:03;99464.47;;;15.31;92.73
80585;BME280;70137;56.482;9.154;2023-09-19T01:05:29;99470.28;;;15.33;93.03
80585;BME280;70137;56.482;9.154;2023-09-19T01:07:55;99465.28;;;15.32;92.17
80585;BME280;70137;56.482;9.154;2023-09-19T01:10:21;99474.13;;;15.31;92.93
80585;BME280;70137;56.482;9.154;2023-09-19T01:19:16;99500.66;;;15.16;91.53
80585;BME280;70137;56.482;9.154;2023-09-19T01:22:00;99503.81;;;15.06;91.11
80585;BME280;70137;56.482;9.154;2023-09-19T01:30:24;99518.03;;;14.92;90.74
80585;BME280;70137;56.482;9.154;2023-09-19T01:32:53;99521.97;;;14.83;90.72
80585;BME280;70137;56.482;9.154;2023-09-19T01:35:19;99524.25;;;14.79;90.32
80585;BME280;70137;56.482;9.154;2023-09-19T01:37:45;99525.47;;;14.77;90.85
80585;BME280;70137;56.482;9.154;2023-09-19T01:40:13;99523.50;;;14.72;91.06
80585;BME280;70137;56.482;9.154;2023-09-19T01:45:56;99517.22;;;14.62;90.69
80585;BME280;70137;56.482;9.154;2023-09-19T01:51:09;99532.72;;;14.56;91.17
80585;BME280;70137;56.482;9.154;2023-09-19T01:53:50;99528.53;;;14.55;91.36
80585;BME280;70137;56.482;9.154;2023-09-19T01:56:25;99531.34;;;14.54;92.13
80585;BME280;70137;56.482;9.154;2023-09-19T01:58:56;99526.56;;;14.51;91.81
80585;BME280;70137;56.482;9.154;2023-09-19T02:01:24;99525.22;;;14.48;92.08
80585;BME280;70137;56.482;9.154;2023-09-19T02:03:51;99529.22;;;14.44;91.97
80585;BME280;70137;56.482;9.154;2023-09-19T02:06:18;99525.47;;;14.40;91.94
80585;BME280;70137;56.482;9.154;2023-09-19T02:08:45;99535.72;;;14.35;92.00
80585;BME280;70137;56.482;9.154;2023-09-19T02:11:11;99533.56;;;14.32;92.07
80585;BME280;70137;56.482;9.154;2023-09-19T02:13:37;99542.63;;;14.29;91.84
80585;BME280;70137;56.482;9.154;2023-09-19T02:16:03;99538.63;;;14.27;91.94
80585;BME280;70137;56.482;9.154;2023-09-19T02:18:29;99542.25;;;14.26;92.52
80585;BME280;70137;56.482;9.154;2023-09-19T02:20:55;99539.06;;;14.24;92.67
80585;BME280;70137;56.482;9.154;2023-09-19T02:23:21;99548.91;;;14.22;93.12
80585;BME280;70137;56.482;9.154;2023-09-19T02:25:59;99555.75;;;14.16;92.60
80585;BME280;70137;56.482;9.154;2023-09-19T02:28:29;99557.00;;;14.14;92.97
80585;BME280;70137;56.482;9.154;2023-09-19T02:31:01;99564.06;;;14.07;92.97
80585;BME280;70137;56.482;9.154;2023-09-19T02:33:26;99556.69;;;14.03;92.61
80585;BME280;70137;56.482;9.154;2023-09-19T02:35:55;99572.75;;;14.00;92.39
80585;BME280;70137;56.482;9.154;2023-09-19T02:38:27;99571.16;;;13.99;92.42
80585;BME280;70137;56.482;9.154;2023-09-19T02:40:54;99575.78;;;13.97;92.57
80585;BME280;70137;56.482;9.154;2023-09-19T02:43:20;99587.22;;;13.96;92.39
80585;BME280;70137;56.482;9.154;2023-09-19T02:45:46;99593.66;;;13.94;92.27
80585;BME280;70137;56.482;9.154;2023-09-19T02:48:20;99591.66;;;13.89;92.49
80585;BME280;70137;56.482;9.154;2023-09-19T02:50:48;99580.09;;;13.85;91.95
80585;BME280;70137;56.482;9.154;2023-09-19T02:53:14;99578.94;;;13.81;91.55
80585;BME280;70137;56.482;9.154;2023-09-19T02:55:40;99583.53;;;13.79;90.94
80585;BME280;70137;56.482;9.154;2023-09-19T02:58:06;99581.34;;;13.76;91.16
80585;BME280;70137;56.482;9.154;2023-09-19T03:00:39;99582.94;;;13.77;90.55
80585;BME280;70137;56.482;9.154;2023-09-19T03:03:07;99587.00;;;13.73;90.96
80585;BME280;70137;56.482;9.154;2023-09-19T03:05:33;99581.81;;;13.66;89.66
80585;BME280;70137;56.482;9.154;2023-09-19T03:07:59;99584.47;;;13.60;88.53
80585;BME280;70137;56.482;9.154;2023-09-19T03:10:28;99586.91;;;13.55;88.82
80585;BME280;70137;56.482;9.154;2023-09-19T03:12:54;99579.94;;;13.49;87.84
80585;BME280;70137;56.482;9.154;2023-09-19T03:15:19;99594.00;;;13.41;87.43
80585;BME280;70137;56.482;9.154;2023-09-19T03:17:46;99598.47;;;13.34;86.92
80585;BME280;70137;56.482;9.154;2023-09-19T03:20:15;99606.28;;;13.27;87.03
80585;BME280;70137;56.482;9.154;2023-09-19T03:22:44;99607.09;;;13.21;86.50
80585;BME280;70137;56.482;9.154;2023-09-19T03:25:09;99613.72;;;13.17;86.86
80585;BME280;70137;56.482;9.154;2023-09-19T03:27:37;99623.94;;;13.12;86.63
80585;BME280;70137;56.482;9.154;2023-09-19T03:30:03;99629.38;;;13.04;85.53
80585;BME280;70137;56.482;9.154;2023-09-19T03:32:33;99639.97;;;13.02;84.84
80585;BME280;70137;56.482;9.154;2023-09-19T03:34:59;99640.19;;;13.01;85.61
80585;BME280;70137;56.482;9.154;2023-09-19T03:37:24;99646.59;;;12.98;85.30
80585;BME280;70137;56.482;9.154;2023-09-19T03:39:50;99652.59;;;12.99;85.90
80585;BME280;70137;56.482;9.154;2023-09-19T03:42:15;99663.44;;;12.96;86.52
80585;BME280;70137;56.482;9.154;2023-09-19T03:44:40;99675.44;;;12.97;86.51
80585;BME280;70137;56.482;9.154;2023-09-19T03:47:06;99681.03;;;12.94;87.86
80585;BME280;70137;56.482;9.154;2023-09-19T03:49:32;99675.44;;;12.90;88.51
80585;BME280;70137;56.482;9.154;2023-09-19T03:51:57;99671.88;;;12.84;87.79
80585;BME280;70137;56.482;9.154;2023-09-19T03:54:22;99682.06;;;12.79;88.48
80585;BME280;70137;56.482;9.154;2023-09-19T03:56:48;99675.47;;;12.77;88.06
80585;BME280;70137;56.482;9.154;2023-09-19T03:59:13;99685.47;;;12.73;88.25
80585;BME280;70137;56.482;9.154;2023-09-19T04:01:38;99679.06;;;12.69;87.96
80585;BME280;70137;56.482;9.154;2023-09-19T04:04:06;99674.28;;;12.66;87.70
80585;BME280;70137;56.482;9.154;2023-09-19T04:06:37;99668.88;;;12.61;88.02
80585;BME280;70137;56.482;9.154;2023-09-19T04:09:03;99673.91;;;12.56;87.56
80585;BME280;70137;56.482;9.154;2023-09-19T04:11:32;99672.31;;;12.48;87.53
80585;BME280;70137;56.482;9.154;2023-09-19T04:13:58;99663.50;;;12.43;87.55
80585;BME280;70137;56.482;9.154;2023-09-19T04:16:23;99672.72;;;12.39;87.80
80585;BME280;70137;56.482;9.154;2023-09-19T04:18:49;99675.09;;;12.33;86.94
80585;BME280;70137;56.482;9.154;2023-09-19T04:21:14;99671.50;;;12.28;87.00
80585;BME280;70137;56.482;9.154;2023-09-19T04:23:39;99673.91;;;12.23;87.28
80585;BME280;70137;56.482;9.154;2023-09-19T04:26:04;99668.31;;;12.19;87.53
80585;BME280;70137;56.482;9.154;2023-09-19T04:28:31;99667.09;;;12.15;87.34
80585;BME280;70137;56.482;9.154;2023-09-19T04:30:57;99662.91;;;12.14;87.69
80585;BME280;70137;56.482;9.154;2023-09-19T04:33:24;99658.91;;;12.12;88.52
80585;BME280;70137;56.482;9.154;2023-09-19T04:35:50;99658.91;;;12.12;87.84
80585;BME280;70137;56.482;9.154;2023-09-19T04:38:17;99658.50;;;12.08;88.46
80585;BME280;70137;56.482;9.154;2023-09-19T04:40:42;99656.28;;;12.05;88.58
80585;BME280;70137;56.482;9.154;2023-09-19T04:43:08;99658.91;;;12.05;88.32
80585;BME280;70137;56.482;9.154;2023-09-19T04:45:33;99651.50;;;12.02;89.30
80585;BME280;70137;56.482;9.154;2023-09-19T04:47:59;99650.13;;;11.99;88.91
80585;BME280;70137;56.482;9.154;2023-09-19T04:50:25;99651.31;;;11.97;89.35
80585;BME280;70137;56.482;9.154;2023-09-19T04:52:52;99659.47;;;11.94;89.06
80585;BME280;70137;56.482;9.154;2023-09-19T04:55:18;99666.69;;;11.92;89.23
80585;BME280;70137;56.482;9.154;2023-09-19T04:57:48;99687.84;;;11.89;90.10
80585;BME280;70137;56.482;9.154;2023-09-19T05:00:15;99709.81;;;11.86;89.61
80585;BME280;70137;56.482;9.154;2023-09-19T05:02:42;99717.41;;;11.88;90.18
80585;BME280;70137;56.482;9.154;2023-09-19T05:05:08;99705.03;;;11.90;89.59
80585;BME280;70137;56.482;9.154;2023-09-19T05:07:34;99680.44;;;11.86;88.99
80585;BME280;70137;56.482;9.154;2023-09-19T05:09:59;99691.81;;;11.85;88.75
80585;BME280;70137;56.482;9.154;2023-09-19T05:12:28;99689.84;;;11.80;88.65
80585;BME280;70137;56.482;9.154;2023-09-19T05:14:53;99682.59;;;11.75;88.19
80585;BME280;70137;56.482;9.154;2023-09-19T05:17:18;99697.56;;;11.73;87.80
80585;BME280;70137;56.482;9.154;2023-09-19T05:19:44;99702.94;;;11.65;86.31
80585;BME280;70137;56.482;9.154;2023-09-19T05:22:11;99695.75;;;11.61;86.96
80585;BME280;70137;56.482;9.154;2023-09-19T05:24:37;99700.94;;;11.61;87.31
80585;BME280;70137;56.482;9.154;2023-09-19T05:27:04;99704.72;;;11.58;87.90
80585;BME280;70137;56.482;9.154;2023-09-19T05:29:32;99704.72;;;11.58;87.58
80585;BME280;70137;56.482;9.154;2023-09-19T05:31:58;99716.50;;;11.61;87.95
80585;BME280;70137;56.482;9.154;2023-09-19T05:34:23;99714.91;;;11.60;87.83
80585;BME280;70137;56.482;9.154;2023-09-19T05:36:50;99710.50;;;11.60;88.49
80585;BME280;70137;56.482;9.154;2023-09-19T05:39:17;99708.13;;;11.59;88.24
80585;BME280;70137;56.482;9.154;2023-09-19T05:41:42;99705.31;;;11.60;89.09
80585;BME280;70137;56.482;9.154;2023-09-19T05:44:08;99700.13;;;11.60;88.66
80585;BME280;70137;56.482;9.154;2023-09-19T05:46:33;99705.31;;;11.60;88.59
80585;BME280;70137;56.482;9.154;2023-09-19T05:48:58;99713.31;;;11.59;90.09
80585;BME280;70137;56.482;9.154;2023-09-19T05:51:24;99712.50;;;11.58;89.80
80585;BME280;70137;56.482;9.154;2023-09-19T05:53:50;99735.03;;;11.58;89.46
80585;BME280;70137;56.482;9.154;2023-09-19T05:56:15;99740.44;;;11.56;89.88
80585;BME280;70137;56.482;9.154;2023-09-19T05:58:42;99731.66;;;11.57;90.50
80585;BME280;70137;56.482;9.154;2023-09-19T06:01:09;99736.03;;;11.57;89.89
80585;BME280;70137;56.482;9.154;2023-09-19T06:03:35;99737.47;;;11.59;89.51
80585;BME280;70137;56.482;9.154;2023-09-19T06:06:03;99736.28;;;11.62;88.36
80585;BME280;70137;56.482;9.154;2023-09-19T06:08:31;99752.25;;;11.65;88.11
80585;BME280;70137;56.482;9.154;2023-09-19T06:10:57;99746.09;;;11.73;87.02
80585;BME280;70137;56.482;9.154;2023-09-19T06:13:22;99759.13;;;11.80;86.57
80585;BME280;70137;56.482;9.154;2023-09-19T06:15:48;99750.38;;;11.87;86.08
80585;BME280;70137;56.482;9.154;2023-09-19T06:18:14;99759.78;;;11.95;86.28
80585;BME280;70137;56.482;9.154;2023-09-19T06:20:46;99762.38;;;11.95;85.96
80585;BME280;70137;56.482;9.154;2023-09-19T06:23:12;99759.16;;;11.93;86.47
80585;BME280;70137;56.482;9.154;2023-09-19T06:25:37;99759.38;;;11.91;86.40
80585;BME280;70137;56.482;9.154;2023-09-19T06:28:03;99767.72;;;11.87;84.95
80585;BME280;70137;56.482;9.154;2023-09-19T06:30:30;99771.31;;;11.86;84.37
80585;BME280;70137;56.482;9.154;2023-09-19T06:32:57;99774.56;;;11.88;84.17
80585;BME280;70137;56.482;9.154;2023-09-19T06:35:22;99791.94;;;11.87;82.80
80585;BME280;70137;56.482;9.154;2023-09-19T06:37:48;99792.09;;;11.86;82.83
80585;BME280;70137;56.482;9.154;2023-09-19T06:40:14;99786.91;;;11.86;81.92
80585;BME280;70137;56.482;9.154;2023-09-19T06:42:42;99787.53;;;11.88;82.72
80585;BME280;70137;56.482;9.154;2023-09-19T06:45:08;99785.75;;;11.95;81.50
80585;BME280;70137;56.482;9.154;2023-09-19T06:47:34;99786.59;;;12.09;80.85
80585;BME280;70137;56.482;9.154;2023-09-19T06:49:59;99793.03;;;12.19;79.80
80585;BME280;70137;56.482;9.154;2023-09-19T06:52:24;99791.22;;;12.20;81.10
80585;BME280;70137;56.482;9.154;2023-09-19T06:54:51;99793.03;;;12.19;80.17
80585;BME280;70137;56.482;9.154;2023-09-19T06:57:17;99792.03;;;12.20;79.99
80585;BME280;70137;56.482;9.154;2023-09-19T06:59:43;99795.81;;;12.18;79.32
80585;BME280;70137;56.482;9.154;2023-09-19T07:02:10;99789.63;;;12.25;79.92
80585;BME280;70137;56.482;9.154;2023-09-19T07:04:35;99797.00;;;12.22;79.98
80585;BME280;70137;56.482;9.154;2023-09-19T07:07:01;99809.00;;;12.23;79.58
80585;BME280;70137;56.482;9.154;2023-09-19T07:09:26;99820.44;;;12.28;80.02
80585;BME280;70137;56.482;9.154;2023-09-19T07:11:53;99821.44;;;12.27;79.43
80585;BME280;70137;56.482;9.154;2023-09-19T07:14:18;99840.59;;;12.20;78.89
80585;BME280;70137;56.482;9.154;2023-09-19T07:16:44;99847.34;;;12.14;80.91
80585;BME280;70137;56.482;9.154;2023-09-19T07:19:10;99862.50;;;12.04;80.78
80585;BME280;70137;56.482;9.154;2023-09-19T07:21:37;99873.22;;;11.88;80.72
80585;BME280;70137;56.482;9.154;2023-09-19T07:24:04;99898.34;;;11.81;81.92
80585;BME280;70137;56.482;9.154;2023-09-19T07:26:29;99901.03;;;11.66;81.67
80585;BME280;70137;56.482;9.154;2023-09-19T07:28:56;99892.09;;;11.47;80.49
80585;BME280;70137;56.482;9.154;2023-09-19T07:31:22;99901.22;;;11.36;81.37
80585;BME280;70137;56.482;9.154;2023-09-19T07:33:48;99883.97;;;11.22;82.66
80585;BME280;70137;56.482;9.154;2023-09-19T07:36:13;99865.31;;;11.12;82.71
80585;BME280;70137;56.482;9.154;2023-09-19T07:38:40;99832.34;;;11.06;83.24
80585;BME280;70137;56.482;9.154;2023-09-19T07:41:05;99829.09;;;10.97;82.18
80585;BME280;70137;56.482;9.154;2023-09-19T07:43:31;99839.22;;;10.92;83.80
80585;BME280;70137;56.482;9.154;2023-09-19T07:45:56;99843.41;;;10.93;83.28
80585;BME280;70137;56.482;9.154;2023-09-19T07:48:22;99847.00;;;10.92;84.12
80585;BME280;70137;56.482;9.154;2023-09-19T07:50:49;99841.81;;;10.92;84.48
80585;BME280;70137;56.482;9.154;2023-09-19T07:53:14;99863.72;;;10.89;83.98
80585;BME280;70137;56.482;9.154;2023-09-19T07:55:42;99876.88;;;10.88;84.32
80585;BME280;70137;56.482;9.154;2023-09-19T07:58:08;99901.97;;;10.81;84.49
80585;BME280;70137;56.482;9.154;2023-09-19T08:00:33;99928.97;;;10.72;84.69
80585;BME280;70137;56.482;9.154;2023-09-19T08:03:00;99942.75;;;10.57;84.82
80585;BME280;70137;56.482;9.154;2023-09-19T08:05:26;99919.13;;;10.46;85.38
80585;BME280;70137;56.482;9.154;2023-09-19T08:07:51;99906.69;;;10.41;86.03
80585;BME280;70137;56.482;9.154;2023-09-19T08:10:17;99878.94;;;10.35;84.94
80585;BME280;70137;56.482;9.154;2023-09-19T08:12:45;99866.31;;;10.32;84.48
80585;BME280;70137;56.482;9.154;2023-09-19T08:15:12;99876.69;;;10.32;84.26
80585;BME280;70137;56.482;9.154;2023-09-19T08:17:38;99880.47;;;10.29;83.87
80585;BME280;70137;56.482;9.154;2023-09-19T08:20:04;99886.72;;;10.35;83.89
80585;BME280;70137;56.482;9.154;2023-09-19T08:22:30;99898.06;;;10.34;84.24
80585;BME280;70137;56.482;9.154;2023-09-19T08:24:57;99890.44;;;10.32;83.54
80585;BME280;70137;56.482;9.154;2023-09-19T08:27:23;99894.81;;;10.32;84.01
80585;BME280;70137;56.482;9.154;2023-09-19T08:29:52;99894.22;;;10.30;83.65
80585;BME280;70137;56.482;9.154;2023-09-19T08:32:17;99895.81;;;10.31;83.65
80585;BME280;70137;56.482;9.154;2023-09-19T08:34:45;99893.69;;;10.35;84.60
80585;BME280;70137;56.482;9.154;2023-09-19T08:37:10;99893.41;;;10.44;85.33
80585;BME280;70137;56.482;9.154;2023-09-19T08:39:35;99880.94;;;10.76;84.56
80585;BME280;70137;56.482;9.154;2023-09-19T08:42:02;99885.19;;;11.05;85.02
80585;BME280;70137;56.482;9.154;2023-09-19T08:44:29;99875.66;;;11.33;85.44
80585;BME280;70137;56.482;9.154;2023-09-19T08:47:03;99871.44;;;11.60;86.69
80585;BME280;70137;56.482;9.154;2023-09-19T08:52:25;99875.91;;;12.08;85.22
80585;BME280;70137;56.482;9.154;2023-09-19T08:54:52;99874.59;;;12.31;84.32
80585;BME280;70137;56.482;9.154;2023-09-19T08:57:19;99875.06;;;12.48;83.46
80585;BME280;70137;56.482;9.154;2023-09-19T08:59:48;99872.69;;;12.67;82.47
80585;BME280;70137;56.482;9.154;2023-09-19T09:02:16;99876.50;;;12.90;82.51
80585;BME280;70137;56.482;9.154;2023-09-19T09:04:45;99878.72;;;13.00;81.01
80585;BME280;70137;56.482;9.154;2023-09-19T09:07:11;99884.72;;;13.01;81.21
80585;BME280;70137;56.482;9.154;2023-09-19T09:09:41;99871.72;;;12.94;80.46
80585;BME280;70137;56.482;9.154;2023-09-19T09:12:10;99874.50;;;12.93;81.05
80585;BME280;70137;56.482;9.154;2023-09-19T09:14:37;99878.31;;;12.83;80.94
80585;BME280;70137;56.482;9.154;2023-09-19T09:17:03;99873.72;;;12.79;81.42
80585;BME280;70137;56.482;9.154;2023-09-19T09:19:30;99876.72;;;12.76;81.70
80585;BME280;70137;56.482;9.154;2023-09-19T09:22:06;99868.69;;;12.71;81.93
80585;BME280;70137;56.482;9.154;2023-09-19T09:24:31;99878.31;;;12.90;81.60
80585;BME280;70137;56.482;9.154;2023-09-19T09:27:03;99882.38;;;13.19;81.07
80585;BME280;70137;56.482;9.154;2023-09-19T09:29:45;99882.34;;;13.39;80.91
80585;BME280;70137;56.482;9.154;2023-09-19T09:32:19;99876.34;;;13.52;80.06
80585;BME280;70137;56.482;9.154;2023-09-19T09:34:46;99883.50;;;13.76;79.87
80585;BME280;70137;56.482;9.154;2023-09-19T09:37:14;99884.28;;;13.83;80.78
80585;BME280;70137;56.482;9.154;2023-09-19T09:40:01;99892.31;;;13.75;78.24
80585;BME280;70137;56.482;9.154;2023-09-19T09:42:42;99897.56;;;13.49;77.21
80585;BME280;70137;56.482;9.154;2023-09-19T09:47:46;99902.97;;;13.14;78.54
80585;BME280;70137;56.482;9.154;2023-09-19T09:50:35;99902.16;;;12.94;78.93
80585;BME280;70137;56.482;9.154;2023-09-19T09:53:23;99909.91;;;12.80;81.09
80585;BME280;70137;56.482;9.154;2023-09-19T09:56:05;99909.31;;;12.65;79.71
80585;BME280;70137;56.482;9.154;2023-09-19T09:58:55;99903.44;;;12.50;79.83
80585;BME280;70137;56.482;9.154;2023-09-19T10:01:24;99903.81;;;12.40;80.89
80585;BME280;70137;56.482;9.154;2023-09-19T10:03:57;99904.66;;;12.54;81.27
80585;BME280;70137;56.482;9.154;2023-09-19T10:06:22;99901.31;;;12.67;80.01
80585;BME280;70137;56.482;9.154;2023-09-19T10:11:44;99877.16;;;13.19;78.79
80585;BME280;70137;56.482;9.154;2023-09-19T10:14:15;99891.56;;;13.41;77.61
80585;BME280;70137;56.482;9.154;2023-09-19T10:16:53;99882.94;;;13.41;76.58
80585;BME280;70137;56.482;9.154;2023-09-19T10:19:30;99888.53;;;13.58;77.19
80585;BME280;70137;56.482;9.154;2023-09-19T10:21:59;99889.88;;;13.87;76.39
80585;BME280;70137;56.482;9.154;2023-09-19T10:24:28;99888.22;;;14.06;75.10
80585;BME280;70137;56.482;9.154;2023-09-19T10:26:54;99885.16;;;14.15;76.44
80585;BME280;70137;56.482;9.154;2023-09-19T10:29:21;99885.97;;;14.16;75.81
80585;BME280;70137;56.482;9.154;2023-09-19T10:31:47;99888.56;;;14.16;76.12
80585;BME280;70137;56.482;9.154;2023-09-19T10:34:17;99882.53;;;14.28;75.98
80585;BME280;70137;56.482;9.154;2023-09-19T10:36:45;99882.78;;;14.58;75.91
80585;BME280;70137;56.482;9.154;2023-09-19T10:39:16;99883.47;;;14.79;75.04
80585;BME280;70137;56.482;9.154;2023-09-19T10:41:50;99887.47;;;15.06;76.23
80585;BME280;70137;56.482;9.154;2023-09-19T10:44:25;99880.66;;;15.30;74.90
80585;BME280;70137;56.482;9.154;2023-09-19T10:46:54;99872.53;;;15.38;73.16
80585;BME280;70137;56.482;9.154;2023-09-19T10:49:21;99874.19;;;15.33;72.04
80585;BME280;70137;56.482;9.154;2023-09-19T10:51:47;99877.88;;;15.25;72.96
80585;BME280;70137;56.482;9.154;2023-09-19T10:54:18;99877.56;;;15.15;72.95
80585;BME280;70137;56.482;9.154;2023-09-19T10:56:48;99884.69;;;15.01;72.94
80585;BME280;70137;56.482;9.154;2023-09-19T10:59:17;99890.16;;;14.93;73.81
80585;BME280;70137;56.482;9.154;2023-09-19T11:01:45;99883.56;;;14.91;74.39
80585;BME280;70137;56.482;9.154;2023-09-19T11:04:36;99870.69;;;14.96;75.03
80585;BME280;70137;56.482;9.154;2023-09-19T11:07:10;99876.09;;;14.94;72.91
80585;BME280;70137;56.482;9.154;2023-09-19T11:12:12;99881.34;;;14.94;72.74
80585;BME280;70137;56.482;9.154;2023-09-19T11:14:39;99885.38;;;14.90;70.81
80585;BME280;70137;56.482;9.154;2023-09-19T11:30:31;99890.06;;;14.43;71.95
80585;BME280;70137;56.482;9.154;2023-09-19T11:33:17;99887.09;;;14.33;72.38
80585;BME280;70137;56.482;9.154;2023-09-19T11:36:06;99886.91;;;14.28;73.14
80585;BME280;70137;56.482;9.154;2023-09-19T11:46:27;99888.84;;;14.52;73.97
80585;BME280;70137;56.482;9.154;2023-09-19T11:48:54;99888.41;;;14.55;73.88
80585;BME280;70137;56.482;9.154;2023-09-19T11:51:21;99889.38;;;14.61;73.71
80585;BME280;70137;56.482;9.154;2023-09-19T11:53:54;99888.41;;;14.55;71.75
80585;BME280;70137;56.482;9.154;2023-09-19T11:56:22;99894.88;;;14.46;71.75
80585;BME280;70137;56.482;9.154;2023-09-19T11:58:50;99889.91;;;14.38;72.55
80585;BME280;70137;56.482;9.154;2023-09-19T12:01:30;99889.69;;;14.33;72.39
80585;BME280;70137;56.482;9.154;2023-09-19T12:03:58;99887.31;;;14.25;72.23
80585;BME280;70137;56.482;9.154;2023-09-19T12:06:28;99872.94;;;14.16;72.61
80585;BME280;70137;56.482;9.154;2023-09-19T12:09:00;99870.56;;;14.08;72.41
80585;BME280;70137;56.482;9.154;2023-09-19T12:11:30;99874.59;;;14.03;73.14
80585;BME280;70137;56.482;9.154;2023-09-19T12:13:59;99883.84;;;13.93;72.52
80585;BME280;70137;56.482;9.154;2023-09-19T12:16:26;99877.06;;;13.79;72.58
80585;BME280;70137;56.482;9.154;2023-09-19T12:18:55;99887.53;;;13.72;74.13
80585;BME280;70137;56.482;9.154;2023-09-19T12:21:29;99877.91;;;13.72;75.10
80585;BME280;70137;56.482;9.154;2023-09-19T12:24:07;99880.28;;;13.74;75.48
80585;BME280;70137;56.482;9.154;2023-09-19T12:26:43;99873.28;;;13.68;75.20
80585;BME280;70137;56.482;9.154;2023-09-19T12:29:20;99872.69;;;13.59;76.09
80585;BME280;70137;56.482;9.154;2023-09-19T12:31:58;99867.53;;;13.53;76.94
80585;BME280;70137;56.482;9.154;2023-09-19T12:34:29;99869.50;;;13.51;77.71
80585;BME280;70137;56.482;9.154;2023-09-19T12:37:13;99871.94;;;13.45;78.29
80585;BME280;70137;56.482;9.154;2023-09-19T12:39:50;99870.13;;;13.39;78.33
80585;BME280;70137;56.482;9.154;2023-09-19T12:42:18;99867.94;;;13.36;79.56
80585;BME280;70137;56.482;9.154;2023-09-19T12:44:46;99857.94;;;13.33;79.89
80585;BME280;70137;56.482;9.154;2023-09-19T12:47:14;99863.16;;;13.33;80.22
80585;BME280;70137;56.482;9.154;2023-09-19T12:52:43;99848.13;;;13.29;81.22
80585;BME280;70137;56.482;9.154;2023-09-19T12:55:20;99853.13;;;13.30;82.41
80585;BME280;70137;56.482;9.154;2023-09-19T12:58:11;99834.31;;;13.28;82.73
80585;BME280;70137;56.482;9.154;2023-09-19T13:00:44;99839.94;;;13.25;83.30
80585;BME280;70137;56.482;9.154;2023-09-19T13:03:28;99841.31;;;13.21;83.51
80585;BME280;70137;56.482;9.154;2023-09-19T13:06:00;99833.88;;;13.18;83.98
80585;BME280;70137;56.482;9.154;2023-09-19T13:08:32;99834.31;;;13.15;83.97
80585;BME280;70137;56.482;9.154;2023-09-19T13:13:37;99826.28;;;13.10;85.11
80585;BME280;70137;56.482;9.154;2023-09-19T13:16:03;99820.31;;;13.03;85.14
80585;BME280;70137;56.482;9.154;2023-09-19T13:18:41;99812.28;;;12.98;85.28
80585;BME280;70137;56.482;9.154;2023-09-19T13:21:12;99813.72;;;12.94;86.40
80585;BME280;70137;56.482;9.154;2023-09-19T13:23:50;99803.50;;;12.85;85.95
80585;BME280;70137;56.482;9.154;2023-09-19T13:26:15;99801.91;;;12.78;86.74
80585;BME280;70137;56.482;9.154;2023-09-19T13:28:40;99789.88;;;12.70;86.73
80585;BME280;70137;56.482;9.154;2023-09-19T13:31:06;99788.69;;;12.66;88.20
80585;BME280;70137;56.482;9.154;2023-09-19T13:33:33;99784.28;;;12.67;88.58
80585;BME280;70137;56.482;9.154;2023-09-19T13:35:58;99792.09;;;12.67;88.30
80585;BME280;70137;56.482;9.154;2023-09-19T13:38:24;99790.06;;;12.62;89.43
80585;BME280;70137;56.482;9.154;2023-09-19T13:40:49;99781.28;;;12.56;89.41
80585;BME280;70137;56.482;9.154;2023-09-19T13:43:14;99775.09;;;12.57;89.55
80585;BME280;70137;56.482;9.154;2023-09-19T13:45:41;99772.28;;;12.59;89.96
80585;BME280;70137;56.482;9.154;2023-09-19T13:48:08;99768.69;;;12.60;89.97
80585;BME280;70137;56.482;9.154;2023-09-19T13:50:36;99775.06;;;12.64;90.50
80585;BME280;70137;56.482;9.154;2023-09-19T13:53:01;99761.69;;;12.67;91.00
80585;BME280;70137;56.482;9.154;2023-09-19T13:55:27;99753.47;;;12.70;91.01
80585;BME280;70137;56.482;9.154;2023-09-19T13:57:53;99750.88;;;12.70;90.96
80585;BME280;70137;56.482;9.154;2023-09-19T14:00:21;99755.66;;;12.73;91.91
80585;BME280;70137;56.482;9.154;2023-09-19T14:02:47;99744.28;;;12.74;91.42